Time,TemperatureF,DewpointF,PressureIn,WindDirection,WindDirectionDegrees,WindSpeedMPH,WindSpeedGustMPH,Humidity,HourlyPrecipIn,Conditions,Clouds,dailyrainin,SolarRadiationWatts/m^2,SoftwareType,DateUTC
2013-07-09 08:30:00,67.6,59.4,29.80,ENE,71,3.0,4.0,75,0.00,,,0.00,729,Wunderground v.1.15,2013-07-09 14:30:00,
2013-07-09 08:35:00,68.0,59.8,29.80,ESE,102,4.0,10.0,75,0.00,,,0.00,749,Wunderground v.1.15,2013-07-09 14:35:00,
2013-07-09 08:50:00,68.6,60.7,29.79,North,5,6.0,16.0,76,0.00,,,0.00,747,Wunderground v.1.15,2013-07-09 14:50:00,
2013-07-09 08:55:00,68.4,59.4,29.80,North,355,7.0,9.0,73,0.00,,,0.00,424,Wunderground v.1.15,2013-07-09 14:55:00,
2013-07-09 09:00:00,68.6,60.0,29.80,ENE,76,9.0,9.0,74,0.00,,,0.00,807,Wunderground v.1.15,2013-07-09 15:00:00,
2013-07-09 09:05:00,69.0,61.1,29.80,West,271,7.0,18.0,76,0.00,,,0.00,802,Wunderground v.1.15,2013-07-09 15:05:00,
2013-07-09 09:10:00,69.3,59.9,29.80,NNE,22,6.0,18.0,72,0.00,,,0.00,810,Wunderground v.1.15,2013-07-09 15:10:00,
2013-07-09 09:15:00,69.4,60.0,29.81,NE,44,8.0,18.0,72,0.00,,,0.00,942,Wunderground v.1.15,2013-07-09 15:15:00,
2013-07-09 09:20:00,69.4,60.0,29.81,NW,315,8.0,8.0,72,0.00,,,0.00,325,Wunderground v.1.15,2013-07-09 15:20:00,
2013-07-09 09:25:00,68.8,59.8,29.80,NNE,17,8.0,10.0,73,0.00,,,0.00,309,Wunderground v.1.15,2013-07-09 15:25:00,
2013-07-09 09:30:00,68.5,59.9,29.80,SE,146,8.0,8.0,74,0.00,,,0.00,1086,Wunderground v.1.15,2013-07-09 15:30:00,
2013-07-09 09:35:00,68.9,59.9,29.81,ENE,64,7.0,18.0,73,0.00,,,0.00,1037,Wunderground v.1.15,2013-07-09 15:35:00,
2013-07-09 09:40:00,69.3,60.7,29.81,SE,142,5.0,5.0,74,0.00,,,0.00,823,Wunderground v.1.15,2013-07-09 15:40:00,
2013-07-09 09:45:00,69.4,60.8,29.81,NNE,18,6.0,6.0,74,0.00,,,0.00,1072,Wunderground v.1.15,2013-07-09 15:45:00,
2013-07-09 09:50:00,69.6,60.2,29.81,SSE,167,6.0,6.0,72,0.00,,,0.00,545,Wunderground v.1.15,2013-07-09 15:50:00,
2013-07-09 09:55:00,69.6,60.9,29.80,NE,43,4.0,10.0,74,0.00,,,0.00,580,Wunderground v.1.15,2013-07-09 15:55:00,
2013-07-09 10:00:00,69.5,62.0,29.80,NNE,26,4.0,18.0,77,0.00,,,0.00,490,Wunderground v.1.15,2013-07-09 16:00:00,
2013-07-09 10:05:00,69.9,60.8,29.80,ENE,69,5.0,18.0,73,0.00,,,0.00,506,Wunderground v.1.15,2013-07-09 16:05:00,
2013-07-09 10:10:00,69.8,60.4,29.80,ENE,72,4.0,4.0,72,0.00,,,0.00,909,Wunderground v.1.15,2013-07-09 16:10:00,
2013-07-09 10:15:00,69.8,60.8,29.79,NNE,19,3.0,6.0,73,0.00,,,0.00,483,Wunderground v.1.15,2013-07-09 16:15:00,
2013-07-09 10:20:00,69.4,60.8,29.80,SE,130,4.0,18.0,74,0.00,,,0.00,487,Wunderground v.1.15,2013-07-09 16:20:00,
2013-07-09 10:25:00,69.4,60.8,29.80,East,82,4.0,18.0,74,0.00,,,0.00,487,Wunderground v.1.15,2013-07-09 16:25:00,
2013-07-09 10:30:00,69.3,61.8,29.80,ENE,59,4.0,18.0,77,0.00,,,0.00,802,Wunderground v.1.15,2013-07-09 16:30:00,
2013-07-09 10:40:00,68.8,60.9,29.80,SE,141,6.0,6.0,76,0.00,,,0.00,380,Wunderground v.1.15,2013-07-09 16:40:00,
2013-07-09 10:45:00,68.9,61.4,29.80,NE,34,4.0,18.0,77,0.00,,,0.00,631,Wunderground v.1.15,2013-07-09 16:45:00,
2013-07-09 10:50:00,68.7,61.2,29.80,NNE,30,3.0,18.0,77,0.00,,,0.00,489,Wunderground v.1.15,2013-07-09 16:50:00,
2013-07-09 10:55:00,68.6,61.5,29.80,NE,39,5.0,18.0,78,0.00,,,0.00,397,Wunderground v.1.15,2013-07-09 16:55:00,
2013-07-09 11:00:00,68.6,61.5,29.79,NNE,25,4.0,18.0,78,0.00,,,0.00,563,Wunderground v.1.15,2013-07-09 17:00:00,
2013-07-09 11:05:00,68.7,61.6,29.80,NNE,24,2.0,18.0,78,0.00,,,0.00,492,Wunderground v.1.15,2013-07-09 17:05:00,
2013-07-09 11:10:00,68.7,60.8,29.80,NE,54,2.0,2.0,76,0.00,,,0.00,304,Wunderground v.1.15,2013-07-09 17:10:00,
2013-07-09 11:15:00,68.6,61.1,29.79,NE,49,2.0,4.0,77,0.00,,,0.00,548,Wunderground v.1.15,2013-07-09 17:15:00,
2013-07-09 11:20:00,68.4,61.3,29.80,NE,51,3.0,18.0,78,0.00,,,0.00,462,Wunderground v.1.15,2013-07-09 17:20:00,
2013-07-09 11:25:00,68.1,60.2,29.79,NE,40,4.0,18.0,76,0.00,,,0.00,527,Wunderground v.1.15,2013-07-09 17:25:00,
2013-07-09 11:30:00,68.1,61.0,29.79,NE,42,4.0,18.0,78,0.00,,,0.00,559,Wunderground v.1.15,2013-07-09 17:30:00,
2013-07-09 11:35:00,68.2,61.4,29.79,NE,46,4.0,18.0,79,0.00,,,0.00,1004,Wunderground v.1.15,2013-07-09 17:35:00,
2013-07-09 11:40:00,68.7,61.6,29.79,ESE,118,3.0,3.0,78,0.00,,,0.00,390,Wunderground v.1.15,2013-07-09 17:40:00,
2013-07-09 11:45:00,68.9,61.8,29.79,NE,47,2.0,18.0,78,0.00,,,0.00,469,Wunderground v.1.15,2013-07-09 17:45:00,
2013-07-09 11:50:00,68.6,60.4,29.78,NE,49,2.0,18.0,75,0.00,,,0.00,353,Wunderground v.1.15,2013-07-09 17:50:00,
2013-07-09 12:00:00,67.8,60.7,29.78,NE,46,4.0,18.0,78,0.00,,,0.00,357,Wunderground v.1.15,2013-07-09 18:00:00,
2013-07-09 12:05:00,67.5,60.4,29.78,NE,44,5.0,18.0,78,0.00,,,0.00,406,Wunderground v.1.15,2013-07-09 18:05:00,
2013-07-09 12:10:00,67.5,60.8,29.78,East,80,4.0,4.0,79,0.00,,,0.00,494,Wunderground v.1.15,2013-07-09 18:10:00,
2013-07-09 12:15:00,67.8,61.0,29.78,East,80,2.0,18.0,79,0.00,,,0.00,394,Wunderground v.1.15,2013-07-09 18:15:00,
2013-07-09 12:20:00,68.4,60.9,29.77,ESE,113,0.0,18.0,77,0.00,,,0.00,378,Wunderground v.1.15,2013-07-09 18:20:00,
2013-07-09 12:25:00,68.7,61.2,29.77,NE,39,2.0,18.0,77,0.00,,,0.00,352,Wunderground v.1.15,2013-07-09 18:25:00,
2013-07-09 12:30:00,68.5,61.4,29.77,NE,46,3.0,18.0,78,0.00,,,0.00,297,Wunderground v.1.15,2013-07-09 18:30:00,
2013-07-09 12:40:00,67.7,61.0,29.77,NE,41,6.0,6.0,79,0.00,,,0.00,278,Wunderground v.1.15,2013-07-09 18:40:00,
2013-07-09 12:45:00,67.7,61.0,29.77,ENE,64,5.0,18.0,79,0.00,,,0.00,373,Wunderground v.1.15,2013-07-09 18:45:00,
2013-07-09 12:50:00,67.9,61.5,29.77,ENE,58,5.0,18.0,80,0.00,,,0.00,712,Wunderground v.1.15,2013-07-09 18:50:00,
2013-07-09 12:55:00,68.1,61.7,29.76,NE,53,5.0,18.0,80,0.00,,,0.00,369,Wunderground v.1.15,2013-07-09 18:55:00,
2013-07-09 13:00:00,68.0,61.6,29.76,ENE,67,5.0,5.0,80,0.00,,,0.00,700,Wunderground v.1.15,2013-07-09 19:00:00,
2013-07-09 13:05:00,68.3,61.5,29.76,NE,54,5.0,7.0,79,0.00,,,0.00,271,Wunderground v.1.15,2013-07-09 19:05:00,
2013-07-09 13:10:00,67.9,61.5,29.75,NE,36,5.0,18.0,80,0.00,,,0.00,376,Wunderground v.1.15,2013-07-09 19:10:00,
2013-07-09 13:15:00,68.0,61.6,29.75,ENE,63,8.0,18.0,80,0.00,,,0.00,805,Wunderground v.1.15,2013-07-09 19:15:00,
2013-07-09 13:20:00,68.6,62.2,29.75,ENE,67,8.0,8.0,80,0.00,,,0.00,828,Wunderground v.1.15,2013-07-09 19:20:00,
2013-07-09 13:30:00,69.4,61.9,29.75,ENE,60,7.0,16.0,77,0.00,,,0.00,454,Wunderground v.1.15,2013-07-09 19:30:00,
2013-07-09 13:35:00,68.8,61.7,29.75,NE,53,7.0,16.0,78,0.00,,,0.00,301,Wunderground v.1.15,2013-07-09 19:35:00,
2013-07-09 13:45:00,67.3,62.3,29.74,ENE,76,7.0,16.0,84,0.00,,,0.00,930,Wunderground v.1.15,2013-07-09 19:45:00,
2013-07-09 13:50:00,67.5,61.5,29.74,NE,51,6.0,16.0,81,0.00,,,0.00,824,Wunderground v.1.15,2013-07-09 19:50:00,
2013-07-09 13:55:00,67.6,61.9,29.74,NE,49,8.0,16.0,82,0.00,,,0.00,824,Wunderground v.1.15,2013-07-09 19:55:00,
2013-07-09 14:00:00,67.6,61.9,29.74,NE,56,8.0,8.0,82,0.00,,,0.00,359,Wunderground v.1.15,2013-07-09 20:00:00,
2013-07-09 14:05:00,67.3,62.0,29.74,ESE,110,6.0,16.0,83,0.00,,,0.00,221,Wunderground v.1.15,2013-07-09 20:05:00,
2013-07-09 14:10:00,67.6,61.6,29.73,SE,127,5.0,5.0,81,0.00,,,0.00,786,Wunderground v.1.15,2013-07-09 20:10:00,
2013-07-09 14:15:00,68.5,62.8,29.74,NE,55,5.0,16.0,82,0.00,,,0.00,805,Wunderground v.1.15,2013-07-09 20:15:00,
2013-07-09 14:20:00,68.9,62.5,29.74,NNE,26,5.0,5.0,80,0.00,,,0.00,780,Wunderground v.1.15,2013-07-09 20:20:00,
2013-07-09 14:25:00,69.1,62.3,29.73,East,97,5.0,16.0,79,0.00,,,0.00,772,Wunderground v.1.15,2013-07-09 20:25:00,
2013-07-09 14:30:00,69.5,62.0,29.72,NNE,25,5.0,16.0,77,0.00,,,0.00,788,Wunderground v.1.15,2013-07-09 20:30:00,
2013-07-09 14:35:00,70.1,62.2,29.72,NE,53,6.0,16.0,76,0.00,,,0.00,847,Wunderground v.1.15,2013-07-09 20:35:00,
2013-07-09 14:40:00,70.4,62.1,29.72,NE,55,6.0,6.0,75,0.00,,,0.00,364,Wunderground v.1.15,2013-07-09 20:40:00,
2013-07-09 14:45:00,70.6,62.3,29.72,East,84,4.0,16.0,75,0.00,,,0.00,610,Wunderground v.1.15,2013-07-09 20:45:00,
2013-07-09 14:50:00,70.9,62.2,29.72,NW,323,4.0,4.0,74,0.00,,,0.00,851,Wunderground v.1.15,2013-07-09 20:50:00,
2013-07-09 14:55:00,70.8,62.5,29.72,NE,47,5.0,15.0,75,0.00,,,0.00,765,Wunderground v.1.15,2013-07-09 20:55:00,
2013-07-09 15:00:00,70.7,62.8,29.72,NNE,17,5.0,14.0,76,0.00,,,0.00,838,Wunderground v.1.15,2013-07-09 21:00:00,
2013-07-09 15:05:00,70.2,63.4,29.72,East,81,5.0,14.0,79,0.00,,,0.00,766,Wunderground v.1.15,2013-07-09 21:05:00,
2013-07-09 15:10:00,70.4,63.2,29.72,NE,50,4.0,5.0,78,0.00,,,0.00,371,Wunderground v.1.15,2013-07-09 21:10:00,
2013-07-09 15:15:00,70.0,62.1,29.72,NE,53,3.0,6.0,76,0.00,,,0.00,290,Wunderground v.1.15,2013-07-09 21:15:00,
2013-07-09 15:20:00,69.1,62.3,29.72,East,79,4.0,5.0,79,0.00,,,0.00,313,Wunderground v.1.15,2013-07-09 21:20:00,
2013-07-09 15:25:00,68.3,61.9,29.72,ENE,58,5.0,5.0,80,0.00,,,0.00,366,Wunderground v.1.15,2013-07-09 21:25:00,
2013-07-09 15:30:00,67.9,61.9,29.73,East,87,3.0,3.0,81,0.00,,,0.00,186,Wunderground v.1.15,2013-07-09 21:30:00,
2013-07-09 15:35:00,67.6,61.9,29.72,NE,39,1.0,14.0,82,0.00,,,0.00,200,Wunderground v.1.15,2013-07-09 21:35:00,
2013-07-09 15:40:00,67.6,61.9,29.72,NNE,28,1.0,1.0,82,0.00,,,0.00,218,Wunderground v.1.15,2013-07-09 21:40:00,
2013-07-09 15:45:00,67.6,61.6,29.72,SW,229,2.0,2.0,81,0.00,,,0.00,473,Wunderground v.1.15,2013-07-09 21:45:00,